sensor_id;sensor_type;location;lat;lon;timestamp;pressure;altitude;pressure_sealevel;temperature;humidity
65151;BME280;51918;51.856;0.150;2022-10-19T00:03:02;101789.38;;;11.08;67.26
65151;BME280;51918;51.856;0.150;2022-10-19T00:08:03;101792.63;;;11.10;67.04
65151;BME280;51918;51.856;0.150;2022-10-19T00:13:05;101801.56;;;11.06;67.09
65151;BME280;51918;51.856;0.150;2022-10-19T00:18:06;101799.00;;;11.06;66.91
65151;BME280;51918;51.856;0.150;2022-10-19T00:23:06;101813.22;;;11.10;66.77
65151;BME280;51918;51.856;0.150;2022-10-19T00:28:08;101799.41;;;11.11;66.61
65151;BME280;51918;51.856;0.150;2022-10-19T00:33:09;101794.94;;;11.14;66.62
65151;BME280;51918;51.856;0.150;2022-10-19T00:38:09;101784.63;;;11.14;66.33
65151;BME280;51918;51.856;0.150;2022-10-19T00:43:14;101783.78;;;11.03;66.66
65151;BME280;51918;51.856;0.150;2022-10-19T00:48:17;101792.06;;;11.07;66.47
65151;BME280;51918;51.856;0.150;2022-10-19T00:53:19;101798.84;;;10.98;66.87
65151;BME280;51918;51.856;0.150;2022-10-19T00:58:21;101766.34;;;10.97;67.03
65151;BME280;51918;51.856;0.150;2022-10-19T01:03:22;101759.09;;;10.81;67.76
65151;BME280;51918;51.856;0.150;2022-10-19T01:08:23;101762.34;;;10.74;69.11
65151;BME280;51918;51.856;0.150;2022-10-19T01:13:34;101756.25;;;10.75;68.48
65151;BME280;51918;51.856;0.150;2022-10-19T01:18:43;101751.91;;;10.75;68.47
65151;BME280;51918;51.856;0.150;2022-10-19T01:24:17;101744.63;;;10.80;67.99
65151;BME280;51918;51.856;0.150;2022-10-19T01:29:31;101753.56;;;10.86;67.77
65151;BME280;51918;51.856;0.150;2022-10-19T01:34:45;101753.81;;;10.83;67.73
65151;BME280;51918;51.856;0.150;2022-10-19T01:39:51;101732.16;;;10.76;68.13
65151;BME280;51918;51.856;0.150;2022-10-19T01:44:59;101742.44;;;10.76;67.62
65151;BME280;51918;51.856;0.150;2022-10-19T01:50:09;101726.31;;;10.74;68.30
65151;BME280;51918;51.856;0.150;2022-10-19T01:55:14;101720.50;;;10.72;68.30
65151;BME280;51918;51.856;0.150;2022-10-19T02:00:18;101723.59;;;10.75;68.76
65151;BME280;51918;51.856;0.150;2022-10-19T02:05:25;101728.91;;;10.74;68.63
65151;BME280;51918;51.856;0.150;2022-10-19T02:10:28;101721.19;;;10.74;68.79
65151;BME280;51918;51.856;0.150;2022-10-19T02:15:34;101720.91;;;10.77;68.66
65151;BME280;51918;51.856;0.150;2022-10-19T02:20:39;101722.66;;;10.76;68.80
65151;BME280;51918;51.856;0.150;2022-10-19T02:25:39;101703.97;;;10.74;69.16
65151;BME280;51918;51.856;0.150;2022-10-19T02:30:40;101705.47;;;10.77;68.68
65151;BME280;51918;51.856;0.150;2022-10-19T02:35:42;101706.25;;;10.77;68.51
65151;BME280;51918;51.856;0.150;2022-10-19T02:40:49;101694.34;;;10.76;68.46
65151;BME280;51918;51.856;0.150;2022-10-19T02:45:53;101688.78;;;10.61;68.81
65151;BME280;51918;51.856;0.150;2022-10-19T02:50:57;101672.25;;;10.64;68.94
65151;BME280;51918;51.856;0.150;2022-10-19T02:55:57;101666.53;;;10.60;69.04
65151;BME280;51918;51.856;0.150;2022-10-19T03:00:58;101657.91;;;10.61;68.77
65151;BME280;51918;51.856;0.150;2022-10-19T03:06:00;101657.34;;;10.58;69.19
65151;BME280;51918;51.856;0.150;2022-10-19T03:11:00;101653.28;;;10.55;69.63
65151;BME280;51918;51.856;0.150;2022-10-19T03:16:08;101643.94;;;10.54;69.78
65151;BME280;51918;51.856;0.150;2022-10-19T03:21:12;101622.41;;;10.55;70.06
65151;BME280;51918;51.856;0.150;2022-10-19T03:26:14;101628.78;;;10.41;71.02
65151;BME280;51918;51.856;0.150;2022-10-19T03:31:15;101612.78;;;10.47;70.76
65151;BME280;51918;51.856;0.150;2022-10-19T03:36:20;101615.66;;;10.54;70.24
65151;BME280;51918;51.856;0.150;2022-10-19T03:41:22;101600.06;;;10.46;70.80
65151;BME280;51918;51.856;0.150;2022-10-19T03:46:23;101603.72;;;10.53;70.68
65151;BME280;51918;51.856;0.150;2022-10-19T03:51:26;101590.19;;;10.51;70.34
65151;BME280;51918;51.856;0.150;2022-10-19T03:56:28;101582.47;;;10.51;70.65
65151;BME280;51918;51.856;0.150;2022-10-19T04:01:31;101575.00;;;10.58;70.04
65151;BME280;51918;51.856;0.150;2022-10-19T04:06:36;101584.34;;;10.49;71.11
65151;BME280;51918;51.856;0.150;2022-10-19T04:11:37;101586.78;;;10.60;70.51
65151;BME280;51918;51.856;0.150;2022-10-19T04:16:37;101585.47;;;10.56;70.66
65151;BME280;51918;51.856;0.150;2022-10-19T04:21:40;101578.28;;;10.50;71.41
65151;BME280;51918;51.856;0.150;2022-10-19T04:26:41;101586.13;;;10.48;72.59
65151;BME280;51918;51.856;0.150;2022-10-19T04:31:42;101575.16;;;10.56;72.88
65151;BME280;51918;51.856;0.150;2022-10-19T04:36:44;101573.22;;;10.39;74.12
65151;BME280;51918;51.856;0.150;2022-10-19T04:41:45;101581.38;;;10.63;72.92
65151;BME280;51918;51.856;0.150;2022-10-19T04:46:45;101586.50;;;10.34;75.63
65151;BME280;51918;51.856;0.150;2022-10-19T04:51:48;101577.75;;;10.56;74.53
65151;BME280;51918;51.856;0.150;2022-10-19T04:56:48;101585.03;;;10.80;73.19
65151;BME280;51918;51.856;0.150;2022-10-19T05:01:49;101578.00;;;10.73;74.19
65151;BME280;51918;51.856;0.150;2022-10-19T05:06:51;101566.31;;;10.88;73.12
65151;BME280;51918;51.856;0.150;2022-10-19T05:11:51;101573.53;;;10.75;74.12
65151;BME280;51918;51.856;0.150;2022-10-19T05:16:52;101562.28;;;10.95;72.90
65151;BME280;51918;51.856;0.150;2022-10-19T05:21:54;101544.63;;;11.00;72.48
65151;BME280;51918;51.856;0.150;2022-10-19T05:26:54;101535.31;;;10.89;73.39
65151;BME280;51918;51.856;0.150;2022-10-19T05:31:55;101528.88;;;11.03;72.33
65151;BME280;51918;51.856;0.150;2022-10-19T05:36:57;101517.78;;;11.03;72.61
65151;BME280;51918;51.856;0.150;2022-10-19T05:41:57;101522.25;;;11.01;72.58
65151;BME280;51918;51.856;0.150;2022-10-19T05:46:58;101521.59;;;10.99;73.27
65151;BME280;51918;51.856;0.150;2022-10-19T05:52:00;101529.06;;;11.02;72.91
65151;BME280;51918;51.856;0.150;2022-10-19T05:57:00;101515.50;;;11.00;72.93
65151;BME280;51918;51.856;0.150;2022-10-19T06:02:01;101521.34;;;10.92;73.86
65151;BME280;51918;51.856;0.150;2022-10-19T06:07:03;101515.50;;;11.00;73.20
65151;BME280;51918;51.856;0.150;2022-10-19T06:12:03;101514.41;;;11.02;73.05
65151;BME280;51918;51.856;0.150;2022-10-19T06:17:04;101502.22;;;11.04;72.91
65151;BME280;51918;51.856;0.150;2022-10-19T06:22:06;101495.72;;;11.00;72.85
65151;BME280;51918;51.856;0.150;2022-10-19T06:27:06;101485.78;;;11.05;72.74
65151;BME280;51918;51.856;0.150;2022-10-19T06:32:07;101492.72;;;11.05;72.55
65151;BME280;51918;51.856;0.150;2022-10-19T06:37:09;101485.66;;;11.07;72.34
65151;BME280;51918;51.856;0.150;2022-10-19T06:42:09;101503.31;;;11.02;72.63
65151;BME280;51918;51.856;0.150;2022-10-19T06:47:10;101502.47;;;11.11;72.31
65151;BME280;51918;51.856;0.150;2022-10-19T06:52:12;101497.50;;;11.00;73.32
65151;BME280;51918;51.856;0.150;2022-10-19T06:57:13;101499.06;;;11.10;73.23
65151;BME280;51918;51.856;0.150;2022-10-19T07:02:13;101490.69;;;11.08;72.90
65151;BME280;51918;51.856;0.150;2022-10-19T07:07:15;101493.44;;;10.97;74.69
65151;BME280;51918;51.856;0.150;2022-10-19T07:12:16;101477.06;;;11.26;72.92
65151;BME280;51918;51.856;0.150;2022-10-19T07:17:16;101485.59;;;11.36;72.90
65151;BME280;51918;51.856;0.150;2022-10-19T07:22:19;101484.34;;;11.40;73.21
65151;BME280;51918;51.856;0.150;2022-10-19T07:27:19;101496.16;;;11.61;72.82
65151;BME280;51918;51.856;0.150;2022-10-19T07:32:20;101486.88;;;11.50;73.87
65151;BME280;51918;51.856;0.150;2022-10-19T07:37:22;101479.69;;;11.89;72.46
65151;BME280;51918;51.856;0.150;2022-10-19T07:42:22;101463.78;;;11.76;72.93
65151;BME280;51918;51.856;0.150;2022-10-19T07:47:23;101452.91;;;11.82;72.94
65151;BME280;51918;51.856;0.150;2022-10-19T07:52:25;101475.88;;;11.93;72.89
65151;BME280;51918;51.856;0.150;2022-10-19T07:57:26;101463.44;;;12.07;72.31
65151;BME280;51918;51.856;0.150;2022-10-19T08:02:26;101452.91;;;12.18;72.29
65151;BME280;51918;51.856;0.150;2022-10-19T08:07:28;101454.72;;;12.44;71.80
65151;BME280;51918;51.856;0.150;2022-10-19T08:12:29;101457.50;;;12.50;71.56
65151;BME280;51918;51.856;0.150;2022-10-19T08:17:29;101450.41;;;12.52;72.18
65151;BME280;51918;51.856;0.150;2022-10-19T08:22:31;101444.28;;;12.71;71.23
65151;BME280;51918;51.856;0.150;2022-10-19T08:27:32;101443.44;;;13.05;70.29
65151;BME280;51918;51.856;0.150;2022-10-19T08:32:32;101433.47;;;13.10;70.08
65151;BME280;51918;51.856;0.150;2022-10-19T08:37:34;101431.59;;;13.29;69.82
65151;BME280;51918;51.856;0.150;2022-10-19T08:42:42;101414.06;;;13.57;69.01
65151;BME280;51918;51.856;0.150;2022-10-19T08:47:59;101403.63;;;13.75;67.75
65151;BME280;51918;51.856;0.150;2022-10-19T08:53:06;101409.53;;;13.67;67.71
65151;BME280;51918;51.856;0.150;2022-10-19T08:58:24;101391.16;;;14.11;66.84
65151;BME280;51918;51.856;0.150;2022-10-19T09:03:36;101399.88;;;14.02;66.09
65151;BME280;51918;51.856;0.150;2022-10-19T09:08:39;101390.34;;;14.11;66.07
65151;BME280;51918;51.856;0.150;2022-10-19T09:13:43;101411.06;;;14.03;65.84
65151;BME280;51918;51.856;0.150;2022-10-19T09:18:44;101401.38;;;14.05;66.00
65151;BME280;51918;51.856;0.150;2022-10-19T09:23:52;101391.78;;;14.22;65.28
65151;BME280;51918;51.856;0.150;2022-10-19T09:28:59;101392.28;;;14.25;65.37
65151;BME280;51918;51.856;0.150;2022-10-19T09:34:05;101396.84;;;14.07;65.17
65151;BME280;51918;51.856;0.150;2022-10-19T09:39:12;101381.44;;;14.22;65.47
65151;BME280;51918;51.856;0.150;2022-10-19T09:44:12;101395.38;;;14.76;64.15
65151;BME280;51918;51.856;0.150;2022-10-19T09:49:13;101392.84;;;14.52;63.62
65151;BME280;51918;51.856;0.150;2022-10-19T09:54:30;101391.59;;;14.48;64.14
65151;BME280;51918;51.856;0.150;2022-10-19T09:59:35;101373.09;;;15.07;63.05
65151;BME280;51918;51.856;0.150;2022-10-19T10:04:35;101375.50;;;15.16;61.72
65151;BME280;51918;51.856;0.150;2022-10-19T10:09:39;101367.72;;;15.16;60.71
65151;BME280;51918;51.856;0.150;2022-10-19T10:14:43;101376.47;;;15.85;60.67
65151;BME280;51918;51.856;0.150;2022-10-19T10:20:02;101373.03;;;15.69;60.10
65151;BME280;51918;51.856;0.150;2022-10-19T10:25:11;101376.63;;;16.21;59.18
65151;BME280;51918;51.856;0.150;2022-10-19T10:30:15;101371.34;;;16.14;58.23
65151;BME280;51918;51.856;0.150;2022-10-19T10:35:19;101380.41;;;16.33;57.54
65151;BME280;51918;51.856;0.150;2022-10-19T10:40:25;101365.47;;;16.50;56.15
65151;BME280;51918;51.856;0.150;2022-10-19T10:45:30;101366.97;;;16.74;54.98
65151;BME280;51918;51.856;0.150;2022-10-19T10:50:34;101353.50;;;17.00;54.81
65151;BME280;51918;51.856;0.150;2022-10-19T10:55:37;101353.59;;;17.50;53.44
65151;BME280;51918;51.856;0.150;2022-10-19T11:00:37;101350.88;;;17.37;53.11
65151;BME280;51918;51.856;0.150;2022-10-19T11:05:42;101350.78;;;17.09;52.32
65151;BME280;51918;51.856;0.150;2022-10-19T11:10:50;101338.78;;;17.29;53.05
65151;BME280;51918;51.856;0.150;2022-10-19T11:15:52;101335.75;;;17.26;52.52
65151;BME280;51918;51.856;0.150;2022-10-19T11:21:00;101339.72;;;17.43;51.99
65151;BME280;51918;51.856;0.150;2022-10-19T11:26:12;101332.50;;;17.67;50.52
65151;BME280;51918;51.856;0.150;2022-10-19T11:31:19;101309.66;;;18.18;49.41
65151;BME280;51918;51.856;0.150;2022-10-19T11:36:33;101304.81;;;18.57;48.63
65151;BME280;51918;51.856;0.150;2022-10-19T11:41:45;101297.75;;;18.44;47.81
65151;BME280;51918;51.856;0.150;2022-10-19T11:46:58;101268.19;;;18.23;48.80
65151;BME280;51918;51.856;0.150;2022-10-19T11:52:07;101255.47;;;18.49;48.54
65151;BME280;51918;51.856;0.150;2022-10-19T11:57:15;101229.94;;;19.25;48.55
65151;BME280;51918;51.856;0.150;2022-10-19T12:02:32;101220.78;;;19.95;46.11
65151;BME280;51918;51.856;0.150;2022-10-19T12:07:58;101190.53;;;20.25;43.27
65151;BME280;51918;51.856;0.150;2022-10-19T12:13:04;101202.59;;;19.61;44.38
65151;BME280;51918;51.856;0.150;2022-10-19T12:18:10;101192.63;;;19.45;44.67
65151;BME280;51918;51.856;0.150;2022-10-19T12:23:20;101185.06;;;19.82;44.27
65151;BME280;51918;51.856;0.150;2022-10-19T12:28:27;101166.44;;;20.17;43.95
65151;BME280;51918;51.856;0.150;2022-10-19T12:33:35;101149.13;;;20.29;43.59
65151;BME280;51918;51.856;0.150;2022-10-19T12:38:46;101128.09;;;19.65;44.23
65151;BME280;51918;51.856;0.150;2022-10-19T12:44:04;101108.31;;;19.24;44.69
65151;BME280;51918;51.856;0.150;2022-10-19T12:49:43;101113.78;;;19.03;44.71
65151;BME280;51918;51.856;0.150;2022-10-19T12:54:44;101114.94;;;19.20;44.45
65151;BME280;51918;51.856;0.150;2022-10-19T12:59:57;101110.13;;;19.24;44.13
65151;BME280;51918;51.856;0.150;2022-10-19T13:04:59;101099.84;;;19.56;44.06
65151;BME280;51918;51.856;0.150;2022-10-19T13:10:02;101094.50;;;19.17;43.38
65151;BME280;51918;51.856;0.150;2022-10-19T13:15:05;101079.72;;;18.78;43.85
65151;BME280;51918;51.856;0.150;2022-10-19T13:20:45;101054.84;;;18.89;44.99
65151;BME280;51918;51.856;0.150;2022-10-19T13:31:26;101038.75;;;19.12;42.96
65151;BME280;51918;51.856;0.150;2022-10-19T13:36:27;101024.78;;;19.38;43.81
65151;BME280;51918;51.856;0.150;2022-10-19T13:41:45;101003.44;;;19.09;43.99
65151;BME280;51918;51.856;0.150;2022-10-19T13:46:54;100980.41;;;19.06;44.03
65151;BME280;51918;51.856;0.150;2022-10-19T13:52:11;100977.09;;;18.65;44.06
65151;BME280;51918;51.856;0.150;2022-10-19T13:57:21;100963.28;;;18.65;45.04
65151;BME280;51918;51.856;0.150;2022-10-19T14:08:29;100963.09;;;18.33;45.44
65151;BME280;51918;51.856;0.150;2022-10-19T14:13:32;100956.47;;;18.24;45.93
65151;BME280;51918;51.856;0.150;2022-10-19T14:18:33;100932.44;;;18.09;46.75
65151;BME280;51918;51.856;0.150;2022-10-19T14:23:37;100920.44;;;18.21;46.45
65151;BME280;51918;51.856;0.150;2022-10-19T14:28:39;100916.81;;;18.15;46.88
65151;BME280;51918;51.856;0.150;2022-10-19T14:33:40;100911.03;;;17.93;47.65
65151;BME280;51918;51.856;0.150;2022-10-19T14:38:48;100905.63;;;17.75;47.69
65151;BME280;51918;51.856;0.150;2022-10-19T14:43:49;100899.22;;;17.71;48.30
65151;BME280;51918;51.856;0.150;2022-10-19T14:48:49;100907.72;;;17.24;49.10
65151;BME280;51918;51.856;0.150;2022-10-19T14:53:54;100901.69;;;17.17;49.54
65151;BME280;51918;51.856;0.150;2022-10-19T14:58:58;100886.84;;;16.98;49.64
65151;BME280;51918;51.856;0.150;2022-10-19T15:04:00;100873.47;;;16.59;50.45
65151;BME280;51918;51.856;0.150;2022-10-19T15:09:03;100862.13;;;16.32;51.03
65151;BME280;51918;51.856;0.150;2022-10-19T15:14:07;100871.81;;;16.52;51.22
65151;BME280;51918;51.856;0.150;2022-10-19T15:19:16;100874.59;;;16.44;51.28
65151;BME280;51918;51.856;0.150;2022-10-19T15:24:23;100875.03;;;16.19;52.27
65151;BME280;51918;51.856;0.150;2022-10-19T15:29:28;100860.44;;;16.18;52.78
65151;BME280;51918;51.856;0.150;2022-10-19T15:34:29;100848.38;;;16.04;53.16
65151;BME280;51918;51.856;0.150;2022-10-19T15:39:32;100826.47;;;16.13;52.87
65151;BME280;51918;51.856;0.150;2022-10-19T15:44:41;100832.59;;;15.98;53.13
65151;BME280;51918;51.856;0.150;2022-10-19T15:49:52;100834.56;;;15.96;53.53
65151;BME280;51918;51.856;0.150;2022-10-19T15:54:55;100824.78;;;15.98;53.88
65151;BME280;51918;51.856;0.150;2022-10-19T15:59:58;100830.34;;;15.74;54.37
65151;BME280;51918;51.856;0.150;2022-10-19T16:04:58;100815.06;;;15.79;54.70
65151;BME280;51918;51.856;0.150;2022-10-19T16:10:00;100803.22;;;15.48;56.07
65151;BME280;51918;51.856;0.150;2022-10-19T16:15:01;100806.97;;;15.67;55.36
65151;BME280;51918;51.856;0.150;2022-10-19T16:20:02;100788.22;;;15.44;56.53
65151;BME280;51918;51.856;0.150;2022-10-19T16:25:05;100773.25;;;15.39;56.44
65151;BME280;51918;51.856;0.150;2022-10-19T16:30:07;100753.53;;;15.16;57.43
65151;BME280;51918;51.856;0.150;2022-10-19T16:35:08;100748.13;;;14.96;57.88
65151;BME280;51918;51.856;0.150;2022-10-19T16:40:10;100754.06;;;14.75;58.74
65151;BME280;51918;51.856;0.150;2022-10-19T16:45:11;100742.69;;;14.70;59.21
65151;BME280;51918;51.856;0.150;2022-10-19T16:50:11;100747.22;;;14.68;59.10
65151;BME280;51918;51.856;0.150;2022-10-19T16:55:13;100746.84;;;14.71;59.10
65151;BME280;51918;51.856;0.150;2022-10-19T17:00:14;100742.56;;;14.42;60.55
65151;BME280;51918;51.856;0.150;2022-10-19T17:05:15;100724.00;;;14.38;60.71
65151;BME280;51918;51.856;0.150;2022-10-19T17:10:17;100714.59;;;14.15;61.59
65151;BME280;51918;51.856;0.150;2022-10-19T17:15:17;100712.16;;;14.29;61.32
65151;BME280;51918;51.856;0.150;2022-10-19T17:20:18;100713.44;;;13.88;63.20
65151;BME280;51918;51.856;0.150;2022-10-19T17:25:20;100712.00;;;14.01;62.57
65151;BME280;51918;51.856;0.150;2022-10-19T17:30:20;100725.09;;;13.84;63.74
65151;BME280;51918;51.856;0.150;2022-10-19T17:35:21;100710.03;;;13.73;64.27
65151;BME280;51918;51.856;0.150;2022-10-19T17:40:23;100701.16;;;13.67;64.40
65151;BME280;51918;51.856;0.150;2022-10-19T17:45:23;100685.84;;;13.51;65.70
65151;BME280;51918;51.856;0.150;2022-10-19T17:50:24;100684.34;;;13.71;64.56
65151;BME280;51918;51.856;0.150;2022-10-19T17:55:26;100673.53;;;13.68;64.68
65151;BME280;51918;51.856;0.150;2022-10-19T18:11:14;100663.38;;;13.51;66.56
65151;BME280;51918;51.856;0.150;2022-10-19T18:16:17;100665.78;;;13.38;67.15
65151;BME280;51918;51.856;0.150;2022-10-19T18:21:23;100664.44;;;13.27;67.64
65151;BME280;51918;51.856;0.150;2022-10-19T18:26:27;100667.06;;;13.19;68.04
65151;BME280;51918;51.856;0.150;2022-10-19T18:31:29;100657.63;;;13.26;67.44
65151;BME280;51918;51.856;0.150;2022-10-19T18:36:30;100657.03;;;13.39;67.00
65151;BME280;51918;51.856;0.150;2022-10-19T18:41:33;100626.41;;;12.98;69.31
65151;BME280;51918;51.856;0.150;2022-10-19T18:46:35;100622.69;;;13.15;68.65
65151;BME280;51918;51.856;0.150;2022-10-19T18:51:36;100634.94;;;13.36;67.21
65151;BME280;51918;51.856;0.150;2022-10-19T18:56:38;100637.22;;;13.31;67.87
65151;BME280;51918;51.856;0.150;2022-10-19T19:01:38;100620.06;;;13.39;67.30
65151;BME280;51918;51.856;0.150;2022-10-19T19:06:39;100610.81;;;13.29;67.53
65151;BME280;51918;51.856;0.150;2022-10-19T19:11:41;100621.47;;;13.41;67.47
65151;BME280;51918;51.856;0.150;2022-10-19T19:16:43;100612.66;;;13.50;66.91
65151;BME280;51918;51.856;0.150;2022-10-19T19:21:44;100622.28;;;13.42;67.04
65151;BME280;51918;51.856;0.150;2022-10-19T19:26:48;100636.22;;;13.55;66.64
65151;BME280;51918;51.856;0.150;2022-10-19T19:31:49;100608.13;;;13.52;66.33
65151;BME280;51918;51.856;0.150;2022-10-19T19:36:50;100587.53;;;13.44;66.83
65151;BME280;51918;51.856;0.150;2022-10-19T19:41:52;100582.97;;;13.46;66.50
65151;BME280;51918;51.856;0.150;2022-10-19T19:46:53;100577.81;;;13.46;67.31
65151;BME280;51918;51.856;0.150;2022-10-19T19:51:53;100560.25;;;13.42;66.95
65151;BME280;51918;51.856;0.150;2022-10-19T19:56:55;100556.78;;;13.49;66.44
65151;BME280;51918;51.856;0.150;2022-10-19T20:01:56;100548.06;;;13.50;67.22
65151;BME280;51918;51.856;0.150;2022-10-19T20:06:56;100565.25;;;13.28;68.05
65151;BME280;51918;51.856;0.150;2022-10-19T20:11:58;100575.22;;;13.46;67.25
65151;BME280;51918;51.856;0.150;2022-10-19T20:16:59;100562.69;;;13.43;67.71
65151;BME280;51918;51.856;0.150;2022-10-19T20:21:59;100538.63;;;13.43;68.18
65151;BME280;51918;51.856;0.150;2022-10-19T20:27:01;100512.50;;;13.52;67.79
65151;BME280;51918;51.856;0.150;2022-10-19T20:32:02;100501.63;;;13.42;68.46
65151;BME280;51918;51.856;0.150;2022-10-19T20:37:03;100492.81;;;13.51;68.71
65151;BME280;51918;51.856;0.150;2022-10-19T20:42:05;100493.78;;;13.50;68.89
65151;BME280;51918;51.856;0.150;2022-10-19T20:47:05;100528.34;;;13.64;68.31
65151;BME280;51918;51.856;0.150;2022-10-19T20:52:06;100532.91;;;13.77;68.12
65151;BME280;51918;51.856;0.150;2022-10-19T20:57:08;100512.47;;;13.67;68.40
65151;BME280;51918;51.856;0.150;2022-10-19T21:02:09;100505.69;;;13.81;68.29
65151;BME280;51918;51.856;0.150;2022-10-19T21:07:10;100506.19;;;13.91;67.91
65151;BME280;51918;51.856;0.150;2022-10-19T21:12:12;100487.84;;;13.86;68.35
65151;BME280;51918;51.856;0.150;2022-10-19T21:17:12;100488.69;;;13.72;69.11
65151;BME280;51918;51.856;0.150;2022-10-19T21:22:13;100469.44;;;13.74;69.12
65151;BME280;51918;51.856;0.150;2022-10-19T21:27:15;100458.53;;;13.79;69.27
65151;BME280;51918;51.856;0.150;2022-10-19T21:32:15;100440.06;;;13.82;69.21
65151;BME280;51918;51.856;0.150;2022-10-19T21:37:16;100430.91;;;13.65;70.09
65151;BME280;51918;51.856;0.150;2022-10-19T21:42:18;100433.13;;;13.68;70.10
65151;BME280;51918;51.856;0.150;2022-10-19T21:47:18;100432.53;;;13.87;69.27
65151;BME280;51918;51.856;0.150;2022-10-19T21:52:19;100438.28;;;13.68;70.37
65151;BME280;51918;51.856;0.150;2022-10-19T21:57:21;100446.03;;;13.83;69.94
65151;BME280;51918;51.856;0.150;2022-10-19T22:02:21;100442.81;;;13.81;70.47
65151;BME280;51918;51.856;0.150;2022-10-19T22:07:22;100424.88;;;13.94;69.50
65151;BME280;51918;51.856;0.150;2022-10-19T22:12:24;100416.00;;;13.82;70.41
65151;BME280;51918;51.856;0.150;2022-10-19T22:17:24;100418.63;;;13.88;70.48
65151;BME280;51918;51.856;0.150;2022-10-19T22:22:25;100405.31;;;13.91;69.99
65151;BME280;51918;51.856;0.150;2022-10-19T22:27:27;100409.16;;;13.95;70.05
65151;BME280;51918;51.856;0.150;2022-10-19T22:32:27;100416.28;;;13.93;70.23
65151;BME280;51918;51.856;0.150;2022-10-19T22:37:28;100401.66;;;14.01;70.18
65151;BME280;51918;51.856;0.150;2022-10-19T22:42:30;100387.88;;;14.00;70.17
65151;BME280;51918;51.856;0.150;2022-10-19T22:47:31;100379.44;;;14.13;69.89
65151;BME280;51918;51.856;0.150;2022-10-19T22:52:31;100399.28;;;14.06;70.28
65151;BME280;51918;51.856;0.150;2022-10-19T22:57:33;100405.63;;;14.03;70.84
65151;BME280;51918;51.856;0.150;2022-10-19T23:02:34;100407.84;;;14.06;70.96
65151;BME280;51918;51.856;0.150;2022-10-19T23:07:34;100396.19;;;14.17;70.67
65151;BME280;51918;51.856;0.150;2022-10-19T23:12:36;100390.38;;;14.15;71.13
65151;BME280;51918;51.856;0.150;2022-10-19T23:17:37;100392.03;;;14.23;70.98
65151;BME280;51918;51.856;0.150;2022-10-19T23:22:38;100378.31;;;14.22;71.41
65151;BME280;51918;51.856;0.150;2022-10-19T23:27:40;100356.03;;;14.28;71.29
65151;BME280;51918;51.856;0.150;2022-10-19T23:32:40;100345.13;;;14.32;71.22
65151;BME280;51918;51.856;0.150;2022-10-19T23:37:41;100324.50;;;14.39;71.29
65151;BME280;51918;51.856;0.150;2022-10-19T23:42:43;100323.91;;;14.44;71.32
65151;BME280;51918;51.856;0.150;2022-10-19T23:47:43;100318.31;;;14.40;71.50
65151;BME280;51918;51.856;0.150;2022-10-19T23:52:44;100303.38;;;14.42;71.25
65151;BME280;51918;51.856;0.150;2022-10-19T23:57:46;100312.19;;;14.48;71.58
